Time;durP1;ratioP1;P1;durP2;ratioP2;P2;SDS_P1;SDS_P2;PMS_P1;PMS_P2;Temp;Humidity;BMP_temperature;BMP_pressure;BME280_temperature;BME280_humidity;BME280_pressure;Samples;Min_cycle;Max_cycle;Signal;HPM_P1;HPM_P2
2023/12/22 00:02:08;;;;;;;3.00;2.00;;;;;;;1.49;nan;51726.44;4993384;28;20188;-61
2023/12/22 00:04:33;;;;;;;2.53;1.93;;;;;;;1.44;nan;52205.84;4993218;28;20184;-63
2023/12/22 00:06:58;;;;;;;2.27;1.47;;;;;;;1.28;nan;51347.72;4992857;28;20220;-62
2023/12/22 00:09:24;;;;;;;1.77;1.57;;;;;;;1.49;nan;52185.69;4992773;28;20212;-64
2023/12/22 00:11:49;;;;;;;1.70;1.60;;;;;;;1.30;nan;52536.31;4993034;28;20180;-64
2023/12/22 00:14:14;;;;;;;1.83;1.73;;;;;;;1.58;nan;53863.66;4992991;28;20636;-63
2023/12/22 00:16:40;;;;;;;1.77;1.67;;;;;;;1.40;nan;53767.63;4993236;28;20238;-63
2023/12/22 00:19:05;;;;;;;2.03;1.93;;;;;;;1.37;nan;53736.97;4993023;28;20173;-62
2023/12/22 00:21:31;;;;;;;1.93;1.83;;;;;;;1.42;nan;53782.19;4992759;28;20692;-64
2023/12/22 00:23:57;;;;;;;1.87;1.77;;;;;;;1.41;nan;54670.53;4992245;28;20208;-63
2023/12/22 00:26:23;;;;;;;2.27;2.07;;;;;;;1.43;nan;55465.75;4992790;28;20323;-62
2023/12/22 00:28:48;;;;;;;2.10;1.60;;;;;;;1.48;nan;56016.13;4991669;28;20223;-63
2023/12/22 00:31:14;;;;;;;1.20;1.20;;;;;;;1.48;nan;56285.47;4992537;28;20224;-64
2023/12/22 00:33:39;;;;;;;3.23;2.43;;;;;;;1.72;nan;56966.38;4992981;28;20169;-66
2023/12/22 00:36:04;;;;;;;1.77;1.67;;;;;;;1.19;nan;56727.16;4992634;28;20187;-64
2023/12/22 00:38:30;;;;;;;2.13;1.77;;;;;;;1.42;nan;56711.34;4992092;28;20266;-65
2023/12/22 00:40:56;;;;;;;2.13;2.03;;;;;;;1.71;nan;57209.72;4992489;28;20671;-62
2023/12/22 00:43:21;;;;;;;1.70;1.60;;;;;;;1.64;nan;57280.19;4992690;28;20323;-64
2023/12/22 00:45:47;;;;;;;1.20;1.20;;;;;;;1.67;nan;57237.59;4992305;28;20249;-62
2023/12/22 00:48:12;;;;;;;1.20;1.20;;;;;;;1.70;nan;57484.72;4992429;28;20180;-63
2023/12/22 00:50:38;;;;;;;1.57;1.47;;;;;;;1.23;nan;56701.25;4992342;28;20240;-65
2023/12/22 00:53:03;;;;;;;1.67;1.57;;;;;;;1.18;nan;54546.56;4992482;28;20176;-62
2023/12/22 00:55:29;;;;;;;2.40;2.03;;;;;;;1.03;nan;48325.75;4992072;28;20184;-64
2023/12/22 00:57:54;;;;;;;2.10;2.00;;;;;;;1.29;nan;47550.78;4991927;28;20172;-62
2023/12/22 01:00:19;;;;;;;1.23;1.17;;;;;;;1.23;nan;45702.00;4991816;28;20246;-63
2023/12/22 01:02:45;;;;;;;1.73;1.63;;;;;;;1.14;nan;42593.78;4991835;28;20600;-62
2023/12/22 01:05:10;;;;;;;1.00;1.00;;;;;;;0.92;nan;38610.16;4991872;28;20169;-62
2023/12/22 01:07:36;;;;;;;1.70;1.60;;;;;;;1.23;nan;37603.94;4991827;28;20754;-62
2023/12/22 01:10:03;;;;;;;1.53;1.43;;;;;;;1.20;nan;36003.59;4991620;28;20256;-63
2023/12/22 01:12:28;;;;;;;1.60;1.50;;;;;;;1.28;nan;33773.22;4992164;28;20701;-62
2023/12/22 01:14:55;;;;;;;1.27;1.20;;;;;;;1.25;nan;23566.81;4991716;28;20272;-62
2023/12/22 01:17:20;;;;;;;1.00;1.00;;;;;;;1.00;nan;17512.91;4991821;28;20204;-62
2023/12/22 01:19:46;;;;;;;1.70;1.60;;;;;;;1.04;nan;15609.03;4991792;28;20215;-63
2023/12/22 01:22:11;;;;;;;1.50;1.40;;;;;;;1.09;nan;17516.50;4991934;28;20640;-64
2023/12/22 01:24:39;;;;;;;1.40;1.30;;;;;;;1.44;nan;21984.03;4991353;28;20204;-65
2023/12/22 01:27:05;;;;;;;2.83;2.60;;;;;;;1.25;nan;24522.38;4991733;28;20204;-63
2023/12/22 01:29:30;;;;;;;1.20;1.20;;;;;;;1.36;nan;26439.31;4991879;28;20179;-62
2023/12/22 01:31:55;;;;;;;3.17;1.97;;;;;;;1.22;nan;26750.53;4991388;28;20773;-63
2023/12/22 01:34:21;;;;;;;1.27;1.27;;;;;;;1.40;nan;25804.38;4991539;28;20275;-65
2023/12/22 01:36:46;;;;;;;1.93;1.73;;;;;;;1.21;nan;27068.69;4991472;28;20236;-63
2023/12/22 01:39:13;;;;;;;1.20;1.20;;;;;;;1.46;nan;29634.38;4991219;28;20223;-63
2023/12/22 01:41:38;;;;;;;1.80;1.70;;;;;;;1.28;nan;29623.81;4991342;28;20632;-61
2023/12/22 01:44:04;;;;;;;1.83;1.67;;;;;;;1.44;nan;29313.81;4991633;28;20173;-61
2023/12/22 01:46:29;;;;;;;1.70;1.60;;;;;;;1.50;nan;33148.75;4991771;28;20283;-65
2023/12/22 01:48:55;;;;;;;1.80;1.70;;;;;;;1.39;nan;37615.72;4991655;28;20530;-63
2023/12/22 01:51:20;;;;;;;2.27;2.17;;;;;;;1.37;nan;41664.09;5006570;28;20231;-63
2023/12/22 01:53:46;;;;;;;1.70;1.60;;;;;;;1.33;nan;43582.81;4991027;28;20181;-62
2023/12/22 01:56:12;;;;;;;1.63;1.53;;;;;;;1.16;nan;41905.13;4992204;28;20211;-61
2023/12/22 01:58:38;;;;;;;2.47;2.00;;;;;;;1.12;nan;41011.41;4991157;28;20172;-62
2023/12/22 02:01:03;;;;;;;2.37;2.17;;;;;;;1.42;nan;36658.28;4597947;28;20944;-64
2023/12/22 02:03:30;;;;;;;1.77;1.67;;;;;;;1.31;nan;34733.56;4368441;28;20886;-64
2023/12/22 02:05:56;;;;;;;3.10;2.27;;;;;;;1.60;nan;41074.63;4374530;28;21146;-64
2023/12/22 02:08:24;;;;;;;1.73;1.60;;;;;;;1.36;nan;43166.53;4658981;28;20181;-62
2023/12/22 02:10:49;;;;;;;2.27;2.07;;;;;;;1.58;nan;50021.47;4992284;28;20275;-62
2023/12/22 02:13:15;;;;;;;1.30;1.30;;;;;;;1.58;nan;48844.72;4993850;28;20187;-63
2023/12/22 02:15:40;;;;;;;2.03;1.60;;;;;;;1.24;nan;50112.13;4995246;28;20632;-60
2023/12/22 02:18:23;;;;;;;1.73;1.63;;;;;;;1.31;nan;49667.47;4994976;28;20231;-63
2023/12/22 02:20:49;;;;;;;1.70;1.60;;;;;;;1.33;nan;48882.19;4994682;28;20525;-62
2023/12/22 02:23:14;;;;;;;1.90;1.77;;;;;;;1.36;nan;47471.47;4994642;28;20548;-61
2023/12/22 02:25:39;;;;;;;1.87;1.77;;;;;;;1.26;nan;44693.19;4994513;28;20239;-62
2023/12/22 02:28:13;;;;;;;3.37;2.20;;;;;;;1.15;nan;41011.31;4994728;28;20621;-63
2023/12/22 02:30:49;;;;;;;1.77;1.67;;;;;;;0.92;nan;41517.84;4994977;28;20251;-62
2023/12/22 02:33:16;;;;;;;1.90;1.80;;;;;;;0.81;nan;40635.28;4994607;28;20184;-64
2023/12/22 02:35:44;;;;;;;2.30;2.10;;;;;;;1.01;nan;37268.47;4994870;28;20177;-62
2023/12/22 02:38:11;;;;;;;2.13;1.93;;;;;;;0.84;nan;33743.91;4994407;28;20169;-63
2023/12/22 02:40:37;;;;;;;1.87;1.77;;;;;;;0.83;nan;28322.19;4994676;28;20242;-65
2023/12/22 02:43:04;;;;;;;1.27;1.20;;;;;;;1.00;nan;24190.81;4994622;28;20176;-62
2023/12/22 02:45:30;;;;;;;1.73;1.63;;;;;;;0.85;nan;22910.91;4994488;28;20597;-62
2023/12/22 02:47:55;;;;;;;2.03;1.83;;;;;;;0.91;nan;20369.19;4994348;28;20169;-63
2023/12/22 02:50:21;;;;;;;3.37;1.70;;;;;;;0.92;nan;17192.25;4994494;28;20642;-62
2023/12/22 02:52:46;;;;;;;1.90;1.60;;;;;;;1.24;nan;17840.56;4994602;28;20204;-63
2023/12/22 02:55:12;;;;;;;1.27;1.27;;;;;;;1.00;nan;18783.84;4994818;28;20187;-63
2023/12/22 02:57:37;;;;;;;2.17;2.07;;;;;;;1.03;nan;18785.09;4994380;28;20187;-63
2023/12/22 03:00:03;;;;;;;1.40;1.30;;;;;;;1.02;nan;20056.38;4994101;28;20176;-61
2023/12/22 03:02:28;;;;;;;1.30;1.30;;;;;;;1.10;nan;21332.09;4993755;28;20173;-63
2023/12/22 03:04:54;;;;;;;2.10;1.70;;;;;;;1.38;nan;24210.06;4994007;28;20268;-61
2023/12/22 03:07:19;;;;;;;1.70;1.60;;;;;;;1.36;nan;25802.22;4994189;28;20691;-62
2023/12/22 03:09:45;;;;;;;2.50;2.03;;;;;;;1.44;nan;27081.59;4993998;28;20573;-62
2023/12/22 03:12:10;;;;;;;2.50;1.63;;;;;;;1.38;nan;28672.56;4993952;28;20263;-64
2023/12/22 03:14:36;;;;;;;1.60;1.50;;;;;;;1.21;nan;28343.72;4994175;28;20176;-63
2023/12/22 03:17:04;;;;;;;6.67;1.67;;;;;;;1.16;nan;26747.50;4993645;28;20177;-64
2023/12/22 03:19:30;;;;;;;1.90;1.80;;;;;;;1.02;nan;25784.13;4994303;28;20601;-63
2023/12/22 03:21:56;;;;;;;1.17;1.17;;;;;;;1.31;nan;23251.41;4993813;28;20667;-62
2023/12/22 03:24:23;;;;;;;2.07;1.87;;;;;;;1.17;nan;20063.03;4994095;28;20620;-62
2023/12/22 03:26:51;;;;;;;2.20;1.53;;;;;;;1.38;nan;19753.81;4993663;28;20291;-62
2023/12/22 03:29:17;;;;;;;1.60;1.50;;;;;;;1.40;nan;19436.59;4993726;28;20227;-62
2023/12/22 03:31:43;;;;;;;1.53;1.43;;;;;;;1.43;nan;19756.03;4993913;28;20307;-63
2023/12/22 03:34:08;;;;;;;1.40;1.30;;;;;;;1.59;nan;21673.03;4993581;28;20184;-63
2023/12/22 03:36:34;;;;;;;1.80;1.70;;;;;;;1.57;nan;24220.06;4993619;28;20173;-63
2023/12/22 03:38:59;;;;;;;1.20;1.20;;;;;;;1.60;nan;26771.69;4993635;28;20181;-62
2023/12/22 03:41:25;;;;;;;1.90;1.80;;;;;;;1.24;nan;27389.09;4993140;28;20173;-62
2023/12/22 03:43:50;;;;;;;1.30;1.30;;;;;;;1.35;nan;27714.16;4993184;28;20259;-62
2023/12/22 03:46:16;;;;;;;3.23;1.87;;;;;;;1.55;nan;25812.19;4993166;28;20549;-63
2023/12/22 03:48:41;;;;;;;4.20;1.97;;;;;;;1.58;nan;25176.59;4993331;28;20184;-63
2023/12/22 03:51:07;;;;;;;1.67;1.57;;;;;;;1.41;nan;23256.38;4993292;28;20173;-64
2023/12/22 03:53:32;;;;;;;1.97;1.80;;;;;;;1.63;nan;24541.81;4993158;28;20257;-64
2023/12/22 03:55:57;;;;;;;1.50;1.40;;;;;;;1.77;nan;29333.88;4993110;28;20207;-63
2023/12/22 03:58:23;;;;;;;2.93;2.57;;;;;;;1.78;nan;32208.72;4991884;28;20260;-63
2023/12/22 04:00:48;;;;;;;3.97;2.00;;;;;;;1.40;nan;38255.78;4993386;28;20177;-64
2023/12/22 04:03:14;;;;;;;2.23;2.03;;;;;;;1.54;nan;36027.78;4993596;28;20172;-62
2023/12/22 04:05:39;;;;;;;3.40;2.00;;;;;;;1.28;nan;30261.53;4993039;28;20640;-63
2023/12/22 04:08:05;;;;;;;1.57;1.47;;;;;;;1.42;nan;31866.13;4992781;28;20667;-63
2023/12/22 04:10:31;;;;;;;1.20;1.20;;;;;;;1.20;nan;28662.00;4993062;28;20176;-65
2023/12/22 04:12:57;;;;;;;1.57;1.47;;;;;;;1.14;nan;24516.41;4992973;28;20181;-64
2023/12/22 04:15:22;;;;;;;3.33;2.00;;;;;;;1.51;nan;21987.38;4990820;28;20226;-62
2023/12/22 04:17:48;;;;;;;1.40;1.40;;;;;;;1.25;nan;26433.81;4988479;28;20246;-61
2023/12/22 04:20:13;;;;;;;1.43;1.33;;;;;;;1.63;nan;29644.66;4992754;28;20188;-61
2023/12/22 04:22:39;;;;;;;2.43;2.23;;;;;;;1.56;nan;29640.41;4992791;28;20644;-62
2023/12/22 04:25:06;;;;;;;2.43;2.23;;;;;;;1.72;nan;30288.28;4992284;28;20538;-65
2023/12/22 04:27:35;;;;;;;1.77;1.67;;;;;;;1.56;nan;33471.88;4992397;28;20204;-62
2023/12/22 04:30:00;;;;;;;1.17;1.17;;;;;;;1.63;nan;34755.28;4992195;28;20180;-63
2023/12/22 04:32:26;;;;;;;2.00;1.90;;;;;;;1.70;nan;39558.63;4992988;28;20303;-63
2023/12/22 04:34:51;;;;;;;1.50;1.40;;;;;;;1.48;nan;38929.16;4991686;28;20263;-62
2023/12/22 04:37:17;;;;;;;2.37;1.97;;;;;;;1.29;nan;34093.28;4992761;28;20177;-64
2023/12/22 04:39:42;;;;;;;1.87;1.77;;;;;;;1.35;nan;31861.63;4980495;28;20192;-64
2023/12/22 04:42:08;;;;;;;1.53;1.43;;;;;;;1.68;nan;35717.59;4992420;28;20254;-63
2023/12/22 04:44:33;;;;;;;1.67;1.57;;;;;;;0.88;nan;36939.81;4991901;28;20192;-65
2023/12/22 04:46:58;;;;;;;1.07;1.07;;;;;;;1.53;nan;28362.38;4992147;28;20204;-63
2023/12/22 04:49:24;;;;;;;2.17;2.03;;;;;;;1.48;nan;20394.56;4992238;28;20177;-62
2023/12/22 04:51:49;;;;;;;1.40;1.33;;;;;;;1.39;nan;11176.81;4992275;28;20545;-63
2023/12/22 04:54:15;;;;;;;1.80;1.70;;;;;;;1.15;nan;3250.81;4992435;28;20165;-62
2023/12/22 04:56:40;;;;;;;1.63;1.40;;;;;;;1.07;nan;-544.47;4992203;28;20180;-66
2023/12/22 04:59:05;;;;;;;1.67;1.57;;;;;;;1.12;nan;-1175.91;4992044;28;20211;-63
2023/12/22 05:01:31;;;;;;;2.00;1.47;;;;;;;1.36;nan;-1805.88;4992123;28;20183;-63
2023/12/22 05:03:56;;;;;;;1.60;1.50;;;;;;;1.11;nan;-1807.88;4991917;28;20215;-62
2023/12/22 05:06:21;;;;;;;2.23;2.13;;;;;;;1.00;nan;-1808.72;4991802;28;20235;-64
2023/12/22 05:08:47;;;;;;;2.30;1.50;;;;;;;1.24;nan;-226.72;4991637;28;20295;-64
2023/12/22 05:11:12;;;;;;;1.70;1.60;;;;;;;1.19;nan;2934.97;4991792;28;20223;-64
2023/12/22 05:13:38;;;;;;;2.57;2.37;;;;;;;1.43;nan;3571.75;4991619;28;20520;-64
2023/12/22 05:16:06;;;;;;;1.60;1.50;;;;;;;1.39;nan;4204.31;4991813;28;20208;-63
2023/12/22 05:18:32;;;;;;;1.60;1.50;;;;;;;1.56;nan;4524.06;4991707;28;20203;-65
2023/12/22 05:20:57;;;;;;;2.20;2.10;;;;;;;1.55;nan;6741.66;4991243;28;20593;-63
2023/12/22 05:23:23;;;;;;;1.63;1.53;;;;;;;1.34;nan;3253.81;4991423;28;20185;-62
2023/12/22 05:25:48;;;;;;;1.70;1.60;;;;;;;1.28;nan;-4017.53;4991181;28;20231;-62
2023/12/22 05:28:13;;;;;;;1.27;1.27;;;;;;;1.36;nan;-6542.56;4991288;28;20229;-63
2023/12/22 05:30:39;;;;;;;1.83;1.53;;;;;;;1.13;nan;-6858.00;4991141;28;20228;-64
2023/12/22 05:33:04;;;;;;;2.20;1.67;;;;;;;1.41;nan;-6858.13;4983589;28;20221;-64
2023/12/22 05:35:30;;;;;;;2.00;1.90;;;;;;;1.51;nan;-7489.31;4990452;28;20597;-64
2023/12/22 05:37:55;;;;;;;1.40;1.30;;;;;;;1.37;nan;-7489.09;4990064;28;20188;-64
2023/12/22 05:40:20;;;;;;;1.40;1.33;;;;;;;1.71;nan;-6858.28;4991475;28;20644;-63
2023/12/22 05:42:46;;;;;;;3.03;2.73;;;;;;;1.63;nan;-5279.56;4989554;28;20227;-63
2023/12/22 05:45:11;;;;;;;1.60;1.50;;;;;;;1.55;nan;-4648.13;4993364;28;20169;-63
2023/12/22 05:47:37;;;;;;;1.90;1.80;;;;;;;1.58;nan;1042.22;4995544;28;20204;-62
2023/12/22 05:50:03;;;;;;;2.10;1.90;;;;;;;1.81;nan;2627.94;4995108;28;20234;-66
2023/12/22 05:52:29;;;;;;;1.63;1.53;;;;;;;1.78;nan;1361.25;4995084;28;20560;-64
2023/12/22 05:54:54;;;;;;;1.93;1.83;;;;;;;1.59;nan;1358.75;4995291;28;20196;-64
2023/12/22 05:57:20;;;;;;;1.37;1.33;;;;;;;1.86;nan;1045.63;4994896;28;20262;-64
2023/12/22 05:59:45;;;;;;;1.40;1.33;;;;;;;2.06;nan;1681.53;5010110;28;20394;-64
2023/12/22 06:02:10;;;;;;;1.87;1.77;;;;;;;2.05;nan;3899.03;4995281;28;20181;-64
2023/12/22 06:04:36;;;;;;;3.80;2.43;;;;;;;2.14;nan;11199.00;4995245;28;20177;-64
2023/12/22 06:07:01;;;;;;;2.10;2.00;;;;;;;1.85;nan;18182.94;4995336;28;20636;-64
2023/12/22 06:09:27;;;;;;;2.10;2.00;;;;;;;2.15;nan;18195.50;4995075;28;20177;-64
2023/12/22 06:11:53;;;;;;;1.77;1.67;;;;;;;2.07;nan;20739.41;4995041;28;20204;-63
2023/12/22 06:14:18;;;;;;;2.43;1.83;;;;;;;2.39;nan;22347.94;4994637;28;20656;-65
2023/12/22 06:16:43;;;;;;;2.00;1.90;;;;;;;2.25;nan;24892.25;4994565;28;20259;-64
2023/12/22 06:19:12;;;;;;;1.80;1.70;;;;;;;2.31;nan;35761.75;4994985;28;20259;-65
2023/12/22 06:21:38;;;;;;;1.60;1.50;;;;;;;2.30;nan;37361.97;4995133;28;20663;-64
2023/12/22 06:24:04;;;;;;;4.20;2.10;;;;;;;2.33;nan;40861.47;4994841;28;20176;-63
2023/12/22 06:26:29;;;;;;;1.60;1.50;;;;;;;2.61;nan;45618.19;4994777;28;20189;-64
2023/12/22 06:28:56;;;;;;;4.70;2.73;;;;;;;2.40;nan;46956.84;4995064;28;20165;-64
2023/12/22 06:31:22;;;;;;;2.70;1.93;;;;;;;2.56;nan;48929.72;4994936;28;20291;-64
2023/12/22 06:33:49;;;;;;;2.50;2.30;;;;;;;2.62;nan;52554.44;4994874;28;20177;-64
2023/12/22 06:36:22;;;;;;;2.13;1.80;;;;;;;2.60;nan;53855.75;4994158;28;20732;-64
2023/12/22 06:38:49;;;;;;;1.60;1.50;;;;;;;2.60;nan;52301.00;4994642;28;20180;-65
2023/12/22 06:41:32;;;;;;;1.80;1.50;;;;;;;2.82;nan;52518.88;4994455;28;20583;-64
2023/12/22 06:44:01;;;;;;;2.93;2.50;;;;;;;2.66;nan;53162.00;4994476;28;20211;-64
2023/12/22 06:46:28;;;;;;;2.50;1.83;;;;;;;2.64;nan;52762.63;4994208;28;20623;-65
2023/12/22 06:48:55;;;;;;;2.37;2.17;;;;;;;2.62;nan;52758.63;4994215;28;20165;-64
2023/12/22 06:51:22;;;;;;;2.40;2.20;;;;;;;2.93;nan;53468.34;4993966;28;20196;-64
2023/12/22 06:53:49;;;;;;;2.93;2.40;;;;;;;2.94;nan;53705.41;4993883;28;20168;-63
2023/12/22 06:56:20;;;;;;;2.40;2.30;;;;;;;2.82;nan;53980.19;4993782;28;20183;-62
2023/12/22 06:58:48;;;;;;;2.10;2.00;;;;;;;2.76;nan;53828.16;4993588;28;20253;-67
2023/12/22 07:01:21;;;;;;;1.63;1.53;;;;;;;3.09;nan;53564.97;4994109;28;20173;-63
2023/12/22 07:03:48;;;;;;;2.33;2.13;;;;;;;3.14;nan;53937.09;4993391;28;20173;-63
2023/12/22 07:06:17;;;;;;;1.87;1.77;;;;;;;3.07;nan;54607.28;4993090;28;20215;-64
2023/12/22 07:08:43;;;;;;;3.00;2.67;;;;;;;3.10;nan;54736.75;4994156;28;20260;-65
2023/12/22 07:11:10;;;;;;;2.20;2.00;;;;;;;3.32;nan;55043.00;4993704;28;20631;-64
2023/12/22 07:13:35;;;;;;;2.20;2.00;;;;;;;3.44;nan;55267.56;4994051;28;20203;-65
2023/12/22 07:16:02;;;;;;;3.47;2.83;;;;;;;3.50;nan;55951.81;4993484;28;20644;-66
2023/12/22 07:18:30;;;;;;;5.70;3.43;;;;;;;3.27;nan;56525.00;4992694;28;20180;-64
2023/12/22 07:20:59;;;;;;;3.80;2.40;;;;;;;3.40;nan;58056.59;4993260;28;20246;-65
2023/12/22 07:23:24;;;;;;;4.33;2.63;;;;;;;3.53;nan;58118.06;4993585;28;20169;-65
2023/12/22 07:25:50;;;;;;;4.53;2.70;;;;;;;3.39;nan;58214.41;4993404;28;20179;-64
2023/12/22 07:28:15;;;;;;;2.63;2.43;;;;;;;3.48;nan;58392.63;4993286;28;20173;-64
2023/12/22 07:30:41;;;;;;;1.93;1.83;;;;;;;3.31;nan;58152.78;4993066;28;20221;-64
2023/12/22 07:33:06;;;;;;;1.77;1.67;;;;;;;3.22;nan;57868.22;4993181;28;20636;-64
2023/12/22 07:35:32;;;;;;;1.73;1.63;;;;;;;3.45;nan;57932.84;4993206;28;20530;-64
2023/12/22 07:37:57;;;;;;;3.37;2.57;;;;;;;3.58;nan;58073.03;4993370;28;20179;-64
2023/12/22 07:40:23;;;;;;;5.23;2.60;;;;;;;3.68;nan;58396.72;4993783;28;20173;-63
2023/12/22 07:42:50;;;;;;;1.80;1.70;;;;;;;3.65;nan;58249.66;4992386;28;20172;-67
2023/12/22 07:45:16;;;;;;;2.23;2.13;;;;;;;3.26;nan;58204.81;4992942;28;20169;-64
2023/12/22 07:47:41;;;;;;;2.40;2.23;;;;;;;3.78;nan;58296.03;4992843;28;20287;-65
2023/12/22 07:50:10;;;;;;;2.10;2.00;;;;;;;3.80;nan;58265.91;4993017;28;20169;-65
2023/12/22 07:52:39;;;;;;;2.63;2.20;;;;;;;3.72;nan;58239.03;4992932;28;20172;-65
2023/12/22 07:55:11;;;;;;;1.60;1.50;;;;;;;3.76;nan;58261.03;4988869;28;20184;-62
2023/12/22 07:57:37;;;;;;;1.77;1.67;;;;;;;3.69;nan;58458.38;4982472;28;20550;-63
2023/12/22 08:00:04;;;;;;;1.83;1.73;;;;;;;3.64;nan;58467.53;4978329;28;20268;-64
2023/12/22 08:02:30;;;;;;;2.53;1.93;;;;;;;3.75;nan;58626.44;4978474;28;20209;-64
2023/12/22 08:04:55;;;;;;;1.47;1.37;;;;;;;3.80;nan;58841.38;4985169;28;20292;-65
2023/12/22 08:07:21;;;;;;;2.13;1.93;;;;;;;3.92;nan;59094.41;4986300;28;20283;-64
2023/12/22 08:09:46;;;;;;;1.80;1.70;;;;;;;3.67;nan;59188.06;4983030;28;20195;-64
2023/12/22 08:12:12;;;;;;;3.17;2.20;;;;;;;3.79;nan;59206.31;4996233;28;20718;-63
2023/12/22 08:14:37;;;;;;;1.60;1.50;;;;;;;3.80;nan;59216.97;4986527;28;20208;-65
2023/12/22 08:17:03;;;;;;;3.03;1.93;;;;;;;4.02;nan;59226.06;4988184;28;20185;-62
2023/12/22 08:19:28;;;;;;;2.47;2.27;;;;;;;4.18;nan;59387.66;4988426;28;20645;-64
2023/12/22 08:21:56;;;;;;;2.80;2.27;;;;;;;4.25;nan;59463.63;4986359;28;20263;-65
2023/12/22 08:24:22;;;;;;;1.63;1.53;;;;;;;4.48;nan;59589.59;4987226;28;20277;-65
2023/12/22 08:26:48;;;;;;;1.30;1.30;;;;;;;4.83;nan;59825.63;4986740;28;20280;-64
2023/12/22 08:29:15;;;;;;;2.00;1.90;;;;;;;5.10;nan;59970.91;5001058;28;20215;-65
2023/12/22 08:31:41;;;;;;;1.97;1.77;;;;;;;4.89;nan;59940.50;4985333;28;20248;-63
2023/12/22 08:34:06;;;;;;;1.43;1.33;;;;;;;5.19;nan;60037.19;4986137;28;20192;-63
2023/12/22 08:36:32;;;;;;;1.60;1.50;;;;;;;5.07;nan;60036.47;4985842;28;20290;-64
2023/12/22 08:38:57;;;;;;;2.50;2.30;;;;;;;5.13;nan;60047.66;4985543;28;20577;-62
2023/12/22 08:41:23;;;;;;;1.77;1.60;;;;;;;5.30;nan;60221.00;4985737;28;20196;-66
2023/12/22 08:43:49;;;;;;;2.70;2.50;;;;;;;5.60;nan;60157.75;4985592;28;20196;-63
2023/12/22 08:46:14;;;;;;;2.43;1.80;;;;;;;5.66;nan;60104.22;4978291;28;20244;-63
2023/12/22 08:48:40;;;;;;;2.10;1.90;;;;;;;5.57;nan;60192.38;4981050;28;20659;-64
2023/12/22 08:51:05;;;;;;;1.97;1.87;;;;;;;5.60;nan;60233.72;4984132;28;20207;-65
2023/12/22 08:53:36;;;;;;;2.60;2.33;;;;;;;5.70;nan;60199.88;4978692;28;20235;-64
2023/12/22 08:56:02;;;;;;;1.77;1.67;;;;;;;5.64;nan;60210.34;4986730;28;20185;-65
2023/12/22 08:58:28;;;;;;;1.80;1.70;;;;;;;5.51;nan;60200.88;4978071;28;20185;-69
2023/12/22 09:00:54;;;;;;;1.90;1.80;;;;;;;5.33;nan;60196.50;4984001;28;20711;-64
2023/12/22 09:03:19;;;;;;;1.73;1.63;;;;;;;5.39;nan;60187.47;4981778;28;20191;-67
2023/12/22 09:05:45;;;;;;;1.93;1.83;;;;;;;5.61;nan;60169.00;4977675;28;20240;-64
2023/12/22 09:08:10;;;;;;;2.07;1.90;;;;;;;5.66;nan;60185.28;4981755;28;20262;-65
2023/12/22 09:10:35;;;;;;;2.77;2.57;;;;;;;5.64;nan;60177.44;4977363;28;20189;-63
2023/12/22 09:13:01;;;;;;;2.30;2.13;;;;;;;5.72;nan;60257.84;4977685;28;20192;-65
2023/12/22 09:15:27;;;;;;;2.40;2.20;;;;;;;5.56;nan;60198.88;4995817;28;20181;-64
2023/12/22 09:17:53;;;;;;;2.50;2.30;;;;;;;5.89;nan;60415.69;4992103;28;20254;-66
2023/12/22 09:20:18;;;;;;;1.67;1.57;;;;;;;5.70;nan;60234.78;4991671;28;20640;-66
2023/12/22 09:22:44;;;;;;;2.87;2.37;;;;;;;5.84;nan;60260.56;4991918;28;20184;-63
2023/12/22 09:25:09;;;;;;;4.97;3.03;;;;;;;5.85;nan;60268.72;4992005;28;20259;-63
2023/12/22 09:27:35;;;;;;;1.50;1.40;;;;;;;5.83;nan;60294.38;4990956;28;20199;-64
2023/12/22 09:30:00;;;;;;;2.20;2.00;;;;;;;5.89;nan;60232.66;4990982;28;20187;-64
2023/12/22 09:32:26;;;;;;;1.60;1.50;;;;;;;5.93;nan;60249.81;4991594;28;20195;-64
2023/12/22 09:34:52;;;;;;;1.83;1.73;;;;;;;5.65;nan;60224.69;4991880;28;20177;-66
2023/12/22 09:37:17;;;;;;;2.27;2.17;;;;;;;5.73;nan;60208.28;4990491;28;20177;-63
2023/12/22 09:39:43;;;;;;;4.30;3.93;;;;;;;5.97;nan;60256.81;4990220;28;20195;-63
2023/12/22 09:42:08;;;;;;;2.80;2.50;;;;;;;5.97;nan;60231.47;4990336;28;20192;-64
2023/12/22 09:44:38;;;;;;;2.27;2.07;;;;;;;6.10;nan;60281.50;4990815;28;20374;-63
2023/12/22 09:47:05;;;;;;;1.70;1.60;;;;;;;6.15;nan;60247.06;4991100;28;20296;-63
2023/12/22 09:49:33;;;;;;;1.90;1.80;;;;;;;6.31;nan;60322.72;4991114;28;20161;-64
2023/12/22 09:52:02;;;;;;;3.10;2.80;;;;;;;6.37;nan;60306.06;4990990;28;20177;-75
2023/12/22 09:54:28;;;;;;;2.80;2.27;;;;;;;6.23;nan;60374.63;4991209;28;20208;-65
2023/12/22 09:56:54;;;;;;;2.27;2.07;;;;;;;6.00;nan;60283.56;4990240;28;20258;-64
2023/12/22 09:59:22;;;;;;;1.67;1.57;;;;;;;6.22;nan;60257.44;4990890;28;20176;-65
2023/12/22 10:01:50;;;;;;;2.17;2.07;;;;;;;6.55;nan;60319.16;4991153;28;20170;-62
2023/12/22 10:04:16;;;;;;;2.63;2.43;;;;;;;6.72;nan;60246.25;4991244;28;20161;-65
2023/12/22 10:06:42;;;;;;;3.03;2.73;;;;;;;6.80;nan;60315.56;4991005;28;20207;-64
2023/12/22 10:09:08;;;;;;;2.03;1.87;;;;;;;6.75;nan;60315.59;4991021;28;20169;-63
2023/12/22 10:11:38;;;;;;;2.43;2.27;;;;;;;6.60;nan;60241.03;4990613;28;20176;-64
2023/12/22 10:14:05;;;;;;;2.53;2.33;;;;;;;6.73;nan;60216.38;4991046;28;20169;-63
2023/12/22 10:16:30;;;;;;;1.63;1.53;;;;;;;6.76;nan;60219.72;4990702;28;20184;-65
2023/12/22 10:18:56;;;;;;;4.60;2.20;;;;;;;6.75;nan;60254.16;4991010;28;20165;-65
2023/12/22 10:21:22;;;;;;;2.50;2.00;;;;;;;6.88;nan;60215.94;4990576;28;20537;-65
2023/12/22 10:23:48;;;;;;;2.33;2.13;;;;;;;6.74;nan;60157.16;4990729;28;20187;-66
2023/12/22 10:26:13;;;;;;;2.00;1.80;;;;;;;7.06;nan;60121.25;4990387;28;20220;-65
2023/12/22 10:28:40;;;;;;;2.40;2.20;;;;;;;7.14;nan;60053.44;4990896;28;20165;-63
2023/12/22 10:31:07;;;;;;;1.77;1.67;;;;;;;7.14;nan;60018.44;4990010;28;20303;-65
2023/12/22 10:33:33;;;;;;;2.10;1.97;;;;;;;7.23;nan;59977.13;4993740;28;20280;-62
2023/12/22 10:35:59;;;;;;;1.90;1.70;;;;;;;7.14;nan;59792.47;4993093;28;20297;-65
2023/12/22 10:38:26;;;;;;;1.90;1.80;;;;;;;6.73;nan;59273.19;4994641;28;20161;-63
2023/12/22 10:40:51;;;;;;;1.67;1.57;;;;;;;7.05;nan;58958.19;4994597;28;20177;-63
2023/12/22 10:43:17;;;;;;;2.37;2.20;;;;;;;6.53;nan;58419.53;4994935;28;20190;-66
2023/12/22 10:45:42;;;;;;;2.03;1.83;;;;;;;6.90;nan;58411.53;4994605;28;20504;-62
2023/12/22 10:48:08;;;;;;;1.77;1.67;;;;;;;6.79;nan;56470.09;4994499;28;20702;-65
2023/12/22 10:50:33;;;;;;;2.23;2.03;;;;;;;6.80;nan;55348.38;4994466;28;20241;-63
2023/12/22 10:52:58;;;;;;;1.80;1.70;;;;;;;6.83;nan;53225.53;4993505;28;20648;-65
2023/12/22 10:55:24;;;;;;;2.70;1.90;;;;;;;7.11;nan;51039.81;4993752;28;20181;-62
2023/12/22 10:57:50;;;;;;;2.03;1.93;;;;;;;6.97;nan;49865.06;4993992;28;20191;-62
2023/12/22 11:00:16;;;;;;;2.53;2.17;;;;;;;7.12;nan;51405.41;4994214;28;20168;-65
2023/12/22 11:02:46;;;;;;;1.93;1.80;;;;;;;7.12;nan;50784.56;4994100;28;20628;-62
2023/12/22 11:05:16;;;;;;;1.60;1.50;;;;;;;7.39;nan;51132.13;4993830;28;20592;-64
2023/12/22 11:07:49;;;;;;;2.17;1.53;;;;;;;7.47;nan;53053.25;4993798;28;20192;-63
2023/12/22 11:10:21;;;;;;;1.60;1.50;;;;;;;7.13;nan;52880.53;4994148;28;20177;-64
2023/12/22 11:12:47;;;;;;;3.67;1.90;;;;;;;7.55;nan;53606.38;4994103;28;20173;-64
2023/12/22 11:15:14;;;;;;;1.80;1.70;;;;;;;7.50;nan;53469.50;4993607;28;20314;-69
2023/12/22 11:17:40;;;;;;;2.00;1.87;;;;;;;7.59;nan;55715.34;4993809;28;20184;-65
2023/12/22 11:20:07;;;;;;;1.57;1.47;;;;;;;7.85;nan;57103.94;4993941;28;20252;-65
2023/12/22 11:22:35;;;;;;;1.30;1.20;;;;;;;8.06;nan;58593.94;4993053;28;20235;-63
2023/12/22 11:25:02;;;;;;;2.07;1.73;;;;;;;8.23;nan;59174.91;4993642;28;20181;-63
2023/12/22 11:27:28;;;;;;;1.40;1.30;;;;;;;8.13;nan;59049.53;4993805;28;20208;-65
2023/12/22 11:29:55;;;;;;;1.63;1.53;;;;;;;8.38;nan;58970.16;4994102;28;20199;-66
2023/12/22 11:32:21;;;;;;;1.75;1.65;;;;;;;8.42;nan;59152.03;4993933;28;20232;-64
2023/12/22 11:34:47;;;;;;;1.20;1.17;;;;;;;8.36;nan;59232.47;4993195;28;20173;-62
2023/12/22 11:37:14;;;;;;;1.38;1.27;;;;;;;8.84;nan;59370.69;4993106;28;20570;-63
2023/12/22 11:39:44;;;;;;;1.05;1.05;;;;;;;8.85;nan;59372.34;4992215;28;20195;-64
2023/12/22 11:42:18;;;;;;;1.60;1.50;;;;;;;8.99;nan;59567.44;4992297;28;20235;-63
2023/12/22 11:44:44;;;;;;;1.67;1.58;;;;;;;9.22;nan;59583.22;4992520;28;20180;-64
2023/12/22 11:47:10;;;;;;;1.25;1.20;;;;;;;9.36;nan;59666.38;4993580;28;20200;-63
2023/12/22 11:49:37;;;;;;;2.00;1.40;;;;;;;9.42;nan;59790.25;4993017;28;20556;-67
2023/12/22 11:52:25;;;;;;;1.33;1.25;;;;;;;9.34;nan;59792.09;4993067;28;20219;-66
2023/12/22 11:54:53;;;;;;;1.50;1.40;;;;;;;9.37;nan;59920.28;4993235;28;20589;-65